sensor_id;sensor_type;location;lat;lon;timestamp;temperature;humidity
921;DHT22;447;51.332;6.778;2023-04-15T00:00:42;14.80;78.50
921;DHT22;447;51.332;6.778;2023-04-15T00:03:08;14.80;78.50
921;DHT22;447;51.332;6.778;2023-04-15T00:05:34;14.70;78.40
921;DHT22;447;51.332;6.778;2023-04-15T00:08:00;14.70;78.40
921;DHT22;447;51.332;6.778;2023-04-15T00:10:27;14.70;78.50
921;DHT22;447;51.332;6.778;2023-04-15T00:12:53;14.70;78.50
921;DHT22;447;51.332;6.778;2023-04-15T00:15:19;14.70;78.50
921;DHT22;447;51.332;6.778;2023-04-15T00:17:45;14.70;78.50
921;DHT22;447;51.332;6.778;2023-04-15T00:20:11;14.60;78.50
921;DHT22;447;51.332;6.778;2023-04-15T00:22:37;14.60;78.60
921;DHT22;447;51.332;6.778;2023-04-15T00:25:03;14.60;78.60
921;DHT22;447;51.332;6.778;2023-04-15T00:27:29;14.60;78.70
921;DHT22;447;51.332;6.778;2023-04-15T00:29:55;14.60;78.80
921;DHT22;447;51.332;6.778;2023-04-15T00:32:22;14.60;78.80
921;DHT22;447;51.332;6.778;2023-04-15T00:34:48;14.50;78.80
921;DHT22;447;51.332;6.778;2023-04-15T00:37:14;14.50;78.90
921;DHT22;447;51.332;6.778;2023-04-15T00:39:40;14.50;79.00
921;DHT22;447;51.332;6.778;2023-04-15T00:42:06;14.50;79.00
921;DHT22;447;51.332;6.778;2023-04-15T00:44:32;14.50;79.10
921;DHT22;447;51.332;6.778;2023-04-15T00:46:59;14.50;79.10
921;DHT22;447;51.332;6.778;2023-04-15T00:49:26;14.50;79.10
921;DHT22;447;51.332;6.778;2023-04-15T00:51:53;14.40;79.00
921;DHT22;447;51.332;6.778;2023-04-15T00:54:19;14.40;79.00
921;DHT22;447;51.332;6.778;2023-04-15T00:56:46;14.40;79.10
921;DHT22;447;51.332;6.778;2023-04-15T00:59:13;14.40;79.10
921;DHT22;447;51.332;6.778;2023-04-15T01:01:39;14.30;79.80
921;DHT22;447;51.332;6.778;2023-04-15T01:04:06;14.30;79.00
921;DHT22;447;51.332;6.778;2023-04-15T01:06:34;14.30;79.00
921;DHT22;447;51.332;6.778;2023-04-15T01:09:00;14.30;79.10
921;DHT22;447;51.332;6.778;2023-04-15T01:11:29;14.30;79.10
921;DHT22;447;51.332;6.778;2023-04-15T01:13:57;14.30;79.20
921;DHT22;447;51.332;6.778;2023-04-15T01:16:23;14.20;79.10
921;DHT22;447;51.332;6.778;2023-04-15T01:18:50;14.20;79.10
921;DHT22;447;51.332;6.778;2023-04-15T01:21:18;14.20;79.20
921;DHT22;447;51.332;6.778;2023-04-15T01:23:46;14.20;79.20
921;DHT22;447;51.332;6.778;2023-04-15T01:26:13;14.20;79.20
921;DHT22;447;51.332;6.778;2023-04-15T01:28:39;14.20;79.20
921;DHT22;447;51.332;6.778;2023-04-15T01:31:12;14.10;79.10
921;DHT22;447;51.332;6.778;2023-04-15T01:33:42;14.10;79.20
921;DHT22;447;51.332;6.778;2023-04-15T01:36:26;14.10;79.20
921;DHT22;447;51.332;6.778;2023-04-15T01:38:53;14.10;79.20
921;DHT22;447;51.332;6.778;2023-04-15T01:41:25;14.10;79.30
921;DHT22;447;51.332;6.778;2023-04-15T01:43:53;14.10;79.30
921;DHT22;447;51.332;6.778;2023-04-15T01:46:21;14.10;80.10
921;DHT22;447;51.332;6.778;2023-04-15T01:48:48;14.00;79.20
921;DHT22;447;51.332;6.778;2023-04-15T01:51:15;14.00;79.20
921;DHT22;447;51.332;6.778;2023-04-15T01:53:43;14.00;79.30
921;DHT22;447;51.332;6.778;2023-04-15T01:56:10;14.00;79.40
921;DHT22;447;51.332;6.778;2023-04-15T01:58:37;14.00;79.40
921;DHT22;447;51.332;6.778;2023-04-15T02:01:06;13.90;79.40
921;DHT22;447;51.332;6.778;2023-04-15T02:03:33;13.90;79.40
921;DHT22;447;51.332;6.778;2023-04-15T02:06:01;13.90;79.40
921;DHT22;447;51.332;6.778;2023-04-15T02:08:29;13.90;79.50
921;DHT22;447;51.332;6.778;2023-04-15T02:10:56;13.90;79.50
921;DHT22;447;51.332;6.778;2023-04-15T02:13:25;13.90;79.60
921;DHT22;447;51.332;6.778;2023-04-15T02:15:54;13.80;79.50
921;DHT22;447;51.332;6.778;2023-04-15T02:18:21;13.80;79.60
921;DHT22;447;51.332;6.778;2023-04-15T02:20:51;13.80;79.60
921;DHT22;447;51.332;6.778;2023-04-15T02:23:18;13.80;79.70
921;DHT22;447;51.332;6.778;2023-04-15T02:25:45;13.80;79.80
921;DHT22;447;51.332;6.778;2023-04-15T02:28:13;13.80;79.80
921;DHT22;447;51.332;6.778;2023-04-15T02:30:40;13.70;79.80
921;DHT22;447;51.332;6.778;2023-04-15T02:33:07;13.70;79.80
921;DHT22;447;51.332;6.778;2023-04-15T02:35:35;13.70;79.80
921;DHT22;447;51.332;6.778;2023-04-15T02:38:08;13.70;79.90
921;DHT22;447;51.332;6.778;2023-04-15T02:40:37;13.70;79.90
921;DHT22;447;51.332;6.778;2023-04-15T02:43:04;13.60;79.90
921;DHT22;447;51.332;6.778;2023-04-15T02:45:34;13.60;80.70
921;DHT22;447;51.332;6.778;2023-04-15T02:48:03;13.60;79.90
921;DHT22;447;51.332;6.778;2023-04-15T02:50:33;13.60;80.00
921;DHT22;447;51.332;6.778;2023-04-15T02:53:00;13.60;80.00
921;DHT22;447;51.332;6.778;2023-04-15T02:55:28;13.60;80.10
921;DHT22;447;51.332;6.778;2023-04-15T02:57:56;13.60;80.20
921;DHT22;447;51.332;6.778;2023-04-15T03:00:26;13.50;80.10
921;DHT22;447;51.332;6.778;2023-04-15T03:02:58;13.60;80.30
921;DHT22;447;51.332;6.778;2023-04-15T03:05:25;13.50;80.30
921;DHT22;447;51.332;6.778;2023-04-15T03:07:53;13.50;83.70
921;DHT22;447;51.332;6.778;2023-04-15T03:10:21;13.50;80.20
921;DHT22;447;51.332;6.778;2023-04-15T03:12:48;13.50;80.30
921;DHT22;447;51.332;6.778;2023-04-15T03:15:18;13.40;80.20
921;DHT22;447;51.332;6.778;2023-04-15T03:17:49;13.40;80.20
921;DHT22;447;51.332;6.778;2023-04-15T03:20:17;13.40;80.30
921;DHT22;447;51.332;6.778;2023-04-15T03:22:44;13.40;80.30
921;DHT22;447;51.332;6.778;2023-04-15T03:25:11;13.40;80.40
921;DHT22;447;51.332;6.778;2023-04-15T03:27:40;13.40;80.40
921;DHT22;447;51.332;6.778;2023-04-15T03:30:07;13.40;80.50
921;DHT22;447;51.332;6.778;2023-04-15T03:32:38;13.30;80.40
921;DHT22;447;51.332;6.778;2023-04-15T03:35:07;13.30;80.50
921;DHT22;447;51.332;6.778;2023-04-15T03:37:34;13.30;80.50
921;DHT22;447;51.332;6.778;2023-04-15T03:40:01;13.30;80.60
921;DHT22;447;51.332;6.778;2023-04-15T03:42:29;13.30;80.70
921;DHT22;447;51.332;6.778;2023-04-15T03:44:56;13.30;80.70
921;DHT22;447;51.332;6.778;2023-04-15T03:47:23;13.20;80.70
921;DHT22;447;51.332;6.778;2023-04-15T03:49:51;13.20;80.80
921;DHT22;447;51.332;6.778;2023-04-15T03:52:18;13.20;80.80
921;DHT22;447;51.332;6.778;2023-04-15T03:54:45;13.20;80.90
921;DHT22;447;51.332;6.778;2023-04-15T03:57:12;13.20;81.00
921;DHT22;447;51.332;6.778;2023-04-15T03:59:39;13.20;81.00
921;DHT22;447;51.332;6.778;2023-04-15T04:02:07;13.20;81.10
921;DHT22;447;51.332;6.778;2023-04-15T04:04:34;13.10;81.10
921;DHT22;447;51.332;6.778;2023-04-15T04:07:01;13.10;81.20
921;DHT22;447;51.332;6.778;2023-04-15T04:09:30;13.10;81.30
921;DHT22;447;51.332;6.778;2023-04-15T04:11:58;13.10;81.30
921;DHT22;447;51.332;6.778;2023-04-15T04:14:25;13.10;81.40
921;DHT22;447;51.332;6.778;2023-04-15T04:16:55;13.10;81.50
921;DHT22;447;51.332;6.778;2023-04-15T04:19:25;13.10;81.50
921;DHT22;447;51.332;6.778;2023-04-15T04:21:52;13.10;81.60
921;DHT22;447;51.332;6.778;2023-04-15T04:24:19;13.10;81.70
921;DHT22;447;51.332;6.778;2023-04-15T04:26:47;13.00;81.70
921;DHT22;447;51.332;6.778;2023-04-15T04:29:14;13.00;81.80
921;DHT22;447;51.332;6.778;2023-04-15T04:31:41;13.00;81.90
921;DHT22;447;51.332;6.778;2023-04-15T04:34:09;13.00;82.00
921;DHT22;447;51.332;6.778;2023-04-15T04:36:36;13.00;82.10
921;DHT22;447;51.332;6.778;2023-04-15T04:39:03;13.00;82.20
921;DHT22;447;51.332;6.778;2023-04-15T04:41:31;13.00;82.30
921;DHT22;447;51.332;6.778;2023-04-15T04:43:59;12.90;82.30
921;DHT22;447;51.332;6.778;2023-04-15T04:46:26;12.90;82.30
921;DHT22;447;51.332;6.778;2023-04-15T04:48:53;12.90;82.30
921;DHT22;447;51.332;6.778;2023-04-15T04:51:20;12.90;83.30
921;DHT22;447;51.332;6.778;2023-04-15T04:53:48;12.90;82.60
921;DHT22;447;51.332;6.778;2023-04-15T04:56:15;12.90;82.70
921;DHT22;447;51.332;6.778;2023-04-15T04:58:42;12.90;82.80
921;DHT22;447;51.332;6.778;2023-04-15T05:01:09;12.90;82.80
921;DHT22;447;51.332;6.778;2023-04-15T05:03:36;12.90;82.90
921;DHT22;447;51.332;6.778;2023-04-15T05:06:09;12.80;82.80
921;DHT22;447;51.332;6.778;2023-04-15T05:08:37;12.80;82.90
921;DHT22;447;51.332;6.778;2023-04-15T05:11:04;12.80;83.00
921;DHT22;447;51.332;6.778;2023-04-15T05:13:32;12.80;83.00
921;DHT22;447;51.332;6.778;2023-04-15T05:15:59;12.80;83.10
921;DHT22;447;51.332;6.778;2023-04-15T05:18:29;12.80;83.20
921;DHT22;447;51.332;6.778;2023-04-15T05:20:57;12.80;83.30
921;DHT22;447;51.332;6.778;2023-04-15T05:23:24;12.80;83.40
921;DHT22;447;51.332;6.778;2023-04-15T05:25:52;12.70;83.40
921;DHT22;447;51.332;6.778;2023-04-15T05:28:19;12.70;83.50
921;DHT22;447;51.332;6.778;2023-04-15T05:30:47;12.70;83.50
921;DHT22;447;51.332;6.778;2023-04-15T05:33:14;12.80;83.80
921;DHT22;447;51.332;6.778;2023-04-15T05:35:49;12.70;83.80
921;DHT22;447;51.332;6.778;2023-04-15T05:38:16;12.70;83.90
921;DHT22;447;51.332;6.778;2023-04-15T05:40:43;12.70;84.00
921;DHT22;447;51.332;6.778;2023-04-15T05:43:10;12.70;84.20
921;DHT22;447;51.332;6.778;2023-04-15T05:45:37;12.60;84.20
921;DHT22;447;51.332;6.778;2023-04-15T05:48:04;12.70;84.40
921;DHT22;447;51.332;6.778;2023-04-15T05:50:32;12.60;84.30
921;DHT22;447;51.332;6.778;2023-04-15T05:52:59;12.60;84.50
921;DHT22;447;51.332;6.778;2023-04-15T05:55:26;12.60;84.60
921;DHT22;447;51.332;6.778;2023-04-15T05:57:53;12.60;84.90
921;DHT22;447;51.332;6.778;2023-04-15T06:00:46;12.60;85.00
921;DHT22;447;51.332;6.778;2023-04-15T06:07:33;12.60;85.30
921;DHT22;447;51.332;6.778;2023-04-15T06:10:00;12.50;85.40
921;DHT22;447;51.332;6.778;2023-04-15T06:12:28;12.50;85.70
921;DHT22;447;51.332;6.778;2023-04-15T06:14:55;12.50;85.90
921;DHT22;447;51.332;6.778;2023-04-15T06:17:22;12.50;86.00
921;DHT22;447;51.332;6.778;2023-04-15T06:19:49;12.50;86.10
921;DHT22;447;51.332;6.778;2023-04-15T06:22:23;12.50;86.30
921;DHT22;447;51.332;6.778;2023-04-15T06:24:53;12.50;86.30
921;DHT22;447;51.332;6.778;2023-04-15T06:27:20;12.50;86.50
921;DHT22;447;51.332;6.778;2023-04-15T06:33:45;12.50;86.80
921;DHT22;447;51.332;6.778;2023-04-15T06:36:14;12.50;86.90
921;DHT22;447;51.332;6.778;2023-04-15T06:38:41;12.50;87.10
921;DHT22;447;51.332;6.778;2023-04-15T06:41:08;12.50;87.30
921;DHT22;447;51.332;6.778;2023-04-15T06:43:35;12.50;87.40
921;DHT22;447;51.332;6.778;2023-04-15T06:49:40;12.50;87.60
921;DHT22;447;51.332;6.778;2023-04-15T06:52:30;12.50;87.60
921;DHT22;447;51.332;6.778;2023-04-15T06:54:57;12.50;87.70
921;DHT22;447;51.332;6.778;2023-04-15T06:57:25;12.50;87.80
921;DHT22;447;51.332;6.778;2023-04-15T06:59:52;12.50;87.70
921;DHT22;447;51.332;6.778;2023-04-15T07:02:22;12.50;87.80
921;DHT22;447;51.332;6.778;2023-04-15T07:04:50;12.50;87.90
921;DHT22;447;51.332;6.778;2023-04-15T07:07:40;12.60;88.00
921;DHT22;447;51.332;6.778;2023-04-15T07:10:16;12.60;88.00
921;DHT22;447;51.332;6.778;2023-04-15T07:12:47;12.60;88.00
921;DHT22;447;51.332;6.778;2023-04-15T07:18:51;12.60;88.50
921;DHT22;447;51.332;6.778;2023-04-15T07:21:19;12.60;88.80
921;DHT22;447;51.332;6.778;2023-04-15T07:23:46;12.60;88.80
921;DHT22;447;51.332;6.778;2023-04-15T07:26:13;12.60;89.00
921;DHT22;447;51.332;6.778;2023-04-15T07:28:40;12.70;89.30
921;DHT22;447;51.332;6.778;2023-04-15T07:31:08;12.70;89.60
921;DHT22;447;51.332;6.778;2023-04-15T07:33:35;12.70;89.60
921;DHT22;447;51.332;6.778;2023-04-15T07:36:03;12.70;89.50
921;DHT22;447;51.332;6.778;2023-04-15T07:38:30;12.70;89.70
921;DHT22;447;51.332;6.778;2023-04-15T07:41:00;12.70;89.70
921;DHT22;447;51.332;6.778;2023-04-15T07:43:31;12.70;89.70
921;DHT22;447;51.332;6.778;2023-04-15T07:45:58;12.70;89.60
921;DHT22;447;51.332;6.778;2023-04-15T07:48:26;12.70;89.60
921;DHT22;447;51.332;6.778;2023-04-15T07:50:53;12.80;89.60
921;DHT22;447;51.332;6.778;2023-04-15T07:57:22;12.80;89.60
921;DHT22;447;51.332;6.778;2023-04-15T07:59:50;12.80;89.50
921;DHT22;447;51.332;6.778;2023-04-15T08:02:17;12.80;89.40
921;DHT22;447;51.332;6.778;2023-04-15T08:04:47;12.80;89.40
921;DHT22;447;51.332;6.778;2023-04-15T08:07:14;12.80;89.30
921;DHT22;447;51.332;6.778;2023-04-15T08:09:42;12.80;89.30
921;DHT22;447;51.332;6.778;2023-04-15T08:12:09;12.80;89.30
921;DHT22;447;51.332;6.778;2023-04-15T08:14:41;12.80;89.20
921;DHT22;447;51.332;6.778;2023-04-15T08:17:08;12.80;89.30
921;DHT22;447;51.332;6.778;2023-04-15T08:19:36;12.90;89.30
921;DHT22;447;51.332;6.778;2023-04-15T08:22:03;12.90;89.30
921;DHT22;447;51.332;6.778;2023-04-15T08:24:31;12.90;89.30
921;DHT22;447;51.332;6.778;2023-04-15T08:27:24;12.90;89.20
921;DHT22;447;51.332;6.778;2023-04-15T08:29:51;12.90;89.30
921;DHT22;447;51.332;6.778;2023-04-15T08:32:18;12.90;89.30
921;DHT22;447;51.332;6.778;2023-04-15T08:34:46;12.90;89.40
921;DHT22;447;51.332;6.778;2023-04-15T08:37:13;12.90;89.50
921;DHT22;447;51.332;6.778;2023-04-15T08:39:40;12.90;89.30
921;DHT22;447;51.332;6.778;2023-04-15T08:42:11;13.00;89.40
921;DHT22;447;51.332;6.778;2023-04-15T08:44:42;12.90;89.30
921;DHT22;447;51.332;6.778;2023-04-15T08:47:12;13.00;89.40
921;DHT22;447;51.332;6.778;2023-04-15T08:49:43;13.00;89.40
921;DHT22;447;51.332;6.778;2023-04-15T08:52:11;13.00;89.40
921;DHT22;447;51.332;6.778;2023-04-15T08:54:43;13.10;89.50
921;DHT22;447;51.332;6.778;2023-04-15T08:57:11;13.10;89.40
921;DHT22;447;51.332;6.778;2023-04-15T08:59:38;13.10;89.30
921;DHT22;447;51.332;6.778;2023-04-15T09:02:11;13.10;89.20
921;DHT22;447;51.332;6.778;2023-04-15T09:04:41;13.10;89.10
921;DHT22;447;51.332;6.778;2023-04-15T09:07:09;13.10;89.10
921;DHT22;447;51.332;6.778;2023-04-15T09:09:57;13.20;89.10
921;DHT22;447;51.332;6.778;2023-04-15T09:12:25;13.10;88.90
921;DHT22;447;51.332;6.778;2023-04-15T09:14:52;13.20;88.90
921;DHT22;447;51.332;6.778;2023-04-15T09:17:23;13.20;88.90
921;DHT22;447;51.332;6.778;2023-04-15T09:24:24;13.20;88.70
921;DHT22;447;51.332;6.778;2023-04-15T09:27:11;13.20;88.60
921;DHT22;447;51.332;6.778;2023-04-15T09:29:49;13.20;88.50
921;DHT22;447;51.332;6.778;2023-04-15T09:32:18;13.30;88.70
921;DHT22;447;51.332;6.778;2023-04-15T09:34:50;13.30;88.70
921;DHT22;447;51.332;6.778;2023-04-15T09:37:34;13.30;88.60
921;DHT22;447;51.332;6.778;2023-04-15T09:40:06;13.30;88.60
921;DHT22;447;51.332;6.778;2023-04-15T09:42:36;13.30;88.60
921;DHT22;447;51.332;6.778;2023-04-15T09:45:12;13.30;88.70
921;DHT22;447;51.332;6.778;2023-04-15T09:47:42;13.30;88.70
921;DHT22;447;51.332;6.778;2023-04-15T09:50:14;13.40;88.80
921;DHT22;447;51.332;6.778;2023-04-15T09:52:44;13.40;88.80
921;DHT22;447;51.332;6.778;2023-04-15T09:55:16;13.40;88.90
921;DHT22;447;51.332;6.778;2023-04-15T09:57:48;13.50;89.20
921;DHT22;447;51.332;6.778;2023-04-15T10:00:17;13.50;89.20
921;DHT22;447;51.332;6.778;2023-04-15T10:02:47;13.50;89.20
921;DHT22;447;51.332;6.778;2023-04-15T10:05:17;13.50;89.20
921;DHT22;447;51.332;6.778;2023-04-15T10:07:44;13.60;89.30
921;DHT22;447;51.332;6.778;2023-04-15T10:10:15;13.60;89.40
921;DHT22;447;51.332;6.778;2023-04-15T10:12:43;13.60;89.40
921;DHT22;447;51.332;6.778;2023-04-15T10:15:14;13.60;89.40
921;DHT22;447;51.332;6.778;2023-04-15T10:17:43;13.70;89.50
921;DHT22;447;51.332;6.778;2023-04-15T10:20:14;13.70;89.50
921;DHT22;447;51.332;6.778;2023-04-15T10:22:44;13.70;89.30
921;DHT22;447;51.332;6.778;2023-04-15T10:25:14;13.80;89.50
921;DHT22;447;51.332;6.778;2023-04-15T10:27:41;13.80;89.40
921;DHT22;447;51.332;6.778;2023-04-15T10:30:12;13.80;89.40
921;DHT22;447;51.332;6.778;2023-04-15T10:32:43;13.80;89.50
921;DHT22;447;51.332;6.778;2023-04-15T10:35:13;13.80;89.50
921;DHT22;447;51.332;6.778;2023-04-15T10:37:42;13.70;90.10
921;DHT22;447;51.332;6.778;2023-04-15T10:40:29;13.70;90.50
921;DHT22;447;51.332;6.778;2023-04-15T10:43:01;13.80;90.40
921;DHT22;447;51.332;6.778;2023-04-15T10:45:34;13.80;90.30
921;DHT22;447;51.332;6.778;2023-04-15T10:48:05;13.90;90.40
921;DHT22;447;51.332;6.778;2023-04-15T10:50:33;13.90;90.40
921;DHT22;447;51.332;6.778;2023-04-15T10:53:02;13.90;90.30
921;DHT22;447;51.332;6.778;2023-04-15T10:55:32;13.90;90.30
921;DHT22;447;51.332;6.778;2023-04-15T10:58:00;14.00;90.30
921;DHT22;447;51.332;6.778;2023-04-15T11:00:31;14.00;90.40
921;DHT22;447;51.332;6.778;2023-04-15T11:03:08;14.00;90.40
921;DHT22;447;51.332;6.778;2023-04-15T11:08:11;14.00;90.30
921;DHT22;447;51.332;6.778;2023-04-15T11:13:21;14.00;90.20
921;DHT22;447;51.332;6.778;2023-04-15T11:15:49;14.00;90.20
921;DHT22;447;51.332;6.778;2023-04-15T11:18:20;14.00;90.20
921;DHT22;447;51.332;6.778;2023-04-15T11:21:02;14.00;90.20
921;DHT22;447;51.332;6.778;2023-04-15T11:25:57;14.10;90.30
921;DHT22;447;51.332;6.778;2023-04-15T11:28:26;14.10;90.40
921;DHT22;447;51.332;6.778;2023-04-15T11:30:57;14.10;90.50
921;DHT22;447;51.332;6.778;2023-04-15T11:33:24;14.10;90.50
921;DHT22;447;51.332;6.778;2023-04-15T11:35:52;14.10;90.50
921;DHT22;447;51.332;6.778;2023-04-15T11:38:22;14.10;90.40
921;DHT22;447;51.332;6.778;2023-04-15T11:40:50;14.10;90.40
921;DHT22;447;51.332;6.778;2023-04-15T11:43:21;14.10;90.30
921;DHT22;447;51.332;6.778;2023-04-15T11:46:07;14.10;90.30
921;DHT22;447;51.332;6.778;2023-04-15T11:48:42;14.10;90.30
921;DHT22;447;51.332;6.778;2023-04-15T11:51:11;14.10;90.70
921;DHT22;447;51.332;6.778;2023-04-15T11:53:50;14.10;90.30
921;DHT22;447;51.332;6.778;2023-04-15T11:58:48;14.10;90.40
921;DHT22;447;51.332;6.778;2023-04-15T12:01:16;14.10;90.40
921;DHT22;447;51.332;6.778;2023-04-15T12:03:45;14.20;90.40
921;DHT22;447;51.332;6.778;2023-04-15T12:11:47;14.20;90.30
921;DHT22;447;51.332;6.778;2023-04-15T12:14:30;14.20;90.30
921;DHT22;447;51.332;6.778;2023-04-15T12:16:58;14.20;90.40
921;DHT22;447;51.332;6.778;2023-04-15T12:19:25;14.20;90.40
921;DHT22;447;51.332;6.778;2023-04-15T12:22:03;14.20;90.30
921;DHT22;447;51.332;6.778;2023-04-15T12:24:34;14.20;90.30
921;DHT22;447;51.332;6.778;2023-04-15T12:27:03;14.20;90.30
921;DHT22;447;51.332;6.778;2023-04-15T12:29:30;14.20;90.30
921;DHT22;447;51.332;6.778;2023-04-15T12:32:07;14.20;90.30
921;DHT22;447;51.332;6.778;2023-04-15T12:34:43;14.20;90.30
921;DHT22;447;51.332;6.778;2023-04-15T12:37:11;14.20;90.30
921;DHT22;447;51.332;6.778;2023-04-15T12:39:41;14.20;90.40
921;DHT22;447;51.332;6.778;2023-04-15T12:42:08;14.20;90.30
921;DHT22;447;51.332;6.778;2023-04-15T12:44:48;14.20;90.40
921;DHT22;447;51.332;6.778;2023-04-15T12:47:14;14.20;90.40
921;DHT22;447;51.332;6.778;2023-04-15T12:49:40;14.20;90.50
921;DHT22;447;51.332;6.778;2023-04-15T12:52:12;14.20;90.50
921;DHT22;447;51.332;6.778;2023-04-15T12:54:38;14.20;90.50
921;DHT22;447;51.332;6.778;2023-04-15T12:57:04;14.20;90.50
921;DHT22;447;51.332;6.778;2023-04-15T12:59:30;14.20;90.60
921;DHT22;447;51.332;6.778;2023-04-15T13:01:58;14.20;90.60
921;DHT22;447;51.332;6.778;2023-04-15T13:04:25;14.20;90.70
921;DHT22;447;51.332;6.778;2023-04-15T13:06:55;14.20;90.70
921;DHT22;447;51.332;6.778;2023-04-15T13:09:21;14.20;90.80
921;DHT22;447;51.332;6.778;2023-04-15T13:11:48;14.20;90.80
921;DHT22;447;51.332;6.778;2023-04-15T13:14:15;14.20;90.80
921;DHT22;447;51.332;6.778;2023-04-15T13:16:41;14.20;90.80
921;DHT22;447;51.332;6.778;2023-04-15T13:19:07;14.20;90.70
921;DHT22;447;51.332;6.778;2023-04-15T13:21:33;14.20;90.70
921;DHT22;447;51.332;6.778;2023-04-15T13:24:00;14.20;90.70
921;DHT22;447;51.332;6.778;2023-04-15T13:26:26;14.20;90.70
921;DHT22;447;51.332;6.778;2023-04-15T13:28:52;14.20;90.80
921;DHT22;447;51.332;6.778;2023-04-15T13:31:18;14.20;90.80
921;DHT22;447;51.332;6.778;2023-04-15T13:33:44;14.20;90.80
921;DHT22;447;51.332;6.778;2023-04-15T13:36:10;14.20;90.80
921;DHT22;447;51.332;6.778;2023-04-15T13:38:36;14.20;90.90
921;DHT22;447;51.332;6.778;2023-04-15T13:41:02;14.20;90.90
921;DHT22;447;51.332;6.778;2023-04-15T13:43:28;14.20;90.90
921;DHT22;447;51.332;6.778;2023-04-15T13:45:54;14.20;90.90
921;DHT22;447;51.332;6.778;2023-04-15T13:48:20;14.20;90.90
921;DHT22;447;51.332;6.778;2023-04-15T13:50:46;14.20;90.90
921;DHT22;447;51.332;6.778;2023-04-15T13:53:12;14.20;90.90
921;DHT22;447;51.332;6.778;2023-04-15T13:55:38;14.20;90.90
921;DHT22;447;51.332;6.778;2023-04-15T13:58:07;14.20;90.90
921;DHT22;447;51.332;6.778;2023-04-15T14:00:33;14.20;91.00
921;DHT22;447;51.332;6.778;2023-04-15T14:02:59;14.20;91.00
921;DHT22;447;51.332;6.778;2023-04-15T14:05:25;14.20;91.00
921;DHT22;447;51.332;6.778;2023-04-15T14:07:51;14.20;91.00
921;DHT22;447;51.332;6.778;2023-04-15T14:10:19;14.20;91.10
921;DHT22;447;51.332;6.778;2023-04-15T14:12:46;14.20;91.00
921;DHT22;447;51.332;6.778;2023-04-15T14:15:12;14.20;91.00
921;DHT22;447;51.332;6.778;2023-04-15T14:17:38;14.10;91.00
921;DHT22;447;51.332;6.778;2023-04-15T14:20:06;14.10;91.00
921;DHT22;447;51.332;6.778;2023-04-15T14:22:33;14.10;91.00
921;DHT22;447;51.332;6.778;2023-04-15T14:24:58;14.10;91.00
921;DHT22;447;51.332;6.778;2023-04-15T14:27:27;14.10;91.00
921;DHT22;447;51.332;6.778;2023-04-15T14:29:53;14.10;91.00
921;DHT22;447;51.332;6.778;2023-04-15T14:32:20;14.10;91.10
921;DHT22;447;51.332;6.778;2023-04-15T14:34:46;14.10;91.10
921;DHT22;447;51.332;6.778;2023-04-15T14:37:19;14.10;91.10
921;DHT22;447;51.332;6.778;2023-04-15T14:39:45;14.10;91.10
921;DHT22;447;51.332;6.778;2023-04-15T14:42:11;14.10;91.20
921;DHT22;447;51.332;6.778;2023-04-15T14:44:37;14.10;91.20
921;DHT22;447;51.332;6.778;2023-04-15T14:47:03;14.10;91.20
921;DHT22;447;51.332;6.778;2023-04-15T14:49:29;14.20;91.20
921;DHT22;447;51.332;6.778;2023-04-15T14:51:55;14.10;91.20
921;DHT22;447;51.332;6.778;2023-04-15T14:54:23;14.10;91.30
921;DHT22;447;51.332;6.778;2023-04-15T14:56:49;14.10;91.30
921;DHT22;447;51.332;6.778;2023-04-15T14:59:15;14.10;91.30
921;DHT22;447;51.332;6.778;2023-04-15T15:01:41;14.10;91.30
921;DHT22;447;51.332;6.778;2023-04-15T15:04:09;14.10;91.40
921;DHT22;447;51.332;6.778;2023-04-15T15:06:35;14.10;91.40
921;DHT22;447;51.332;6.778;2023-04-15T15:09:03;14.10;91.50
921;DHT22;447;51.332;6.778;2023-04-15T15:11:33;14.10;91.60
921;DHT22;447;51.332;6.778;2023-04-15T15:13:58;14.10;91.60
921;DHT22;447;51.332;6.778;2023-04-15T15:16:25;14.10;91.70
921;DHT22;447;51.332;6.778;2023-04-15T15:18:54;14.10;91.80
921;DHT22;447;51.332;6.778;2023-04-15T15:21:20;14.10;91.90
921;DHT22;447;51.332;6.778;2023-04-15T15:23:46;14.10;91.90
921;DHT22;447;51.332;6.778;2023-04-15T15:26:13;14.10;92.00
921;DHT22;447;51.332;6.778;2023-04-15T15:28:39;14.10;92.00
921;DHT22;447;51.332;6.778;2023-04-15T15:31:06;14.10;92.10
921;DHT22;447;51.332;6.778;2023-04-15T15:33:34;14.10;92.10
921;DHT22;447;51.332;6.778;2023-04-15T15:36:00;14.10;92.20
921;DHT22;447;51.332;6.778;2023-04-15T15:38:27;14.10;92.30
921;DHT22;447;51.332;6.778;2023-04-15T15:40:53;14.10;92.40
921;DHT22;447;51.332;6.778;2023-04-15T15:47:01;14.10;92.50
921;DHT22;447;51.332;6.778;2023-04-15T15:49:30;14.10;92.60
921;DHT22;447;51.332;6.778;2023-04-15T15:51:56;14.10;92.60
921;DHT22;447;51.332;6.778;2023-04-15T15:54:48;14.10;92.70
921;DHT22;447;51.332;6.778;2023-04-15T15:57:14;14.10;92.80
921;DHT22;447;51.332;6.778;2023-04-15T15:59:43;14.00;92.70
921;DHT22;447;51.332;6.778;2023-04-15T16:09:17;14.00;92.90
921;DHT22;447;51.332;6.778;2023-04-15T16:11:44;14.00;93.00
921;DHT22;447;51.332;6.778;2023-04-15T16:14:10;14.00;93.10
921;DHT22;447;51.332;6.778;2023-04-15T16:16:37;14.00;93.10
921;DHT22;447;51.332;6.778;2023-04-15T16:19:04;14.00;93.20
921;DHT22;447;51.332;6.778;2023-04-15T16:21:30;14.00;93.20
921;DHT22;447;51.332;6.778;2023-04-15T16:23:56;14.00;93.30
921;DHT22;447;51.332;6.778;2023-04-15T16:26:22;14.00;93.30
921;DHT22;447;51.332;6.778;2023-04-15T16:28:48;14.00;93.30
921;DHT22;447;51.332;6.778;2023-04-15T16:31:14;14.00;93.40
921;DHT22;447;51.332;6.778;2023-04-15T16:33:40;14.00;93.40
921;DHT22;447;51.332;6.778;2023-04-15T16:36:06;14.00;93.50
921;DHT22;447;51.332;6.778;2023-04-15T16:38:32;14.00;93.50
921;DHT22;447;51.332;6.778;2023-04-15T16:40:59;13.90;93.50
921;DHT22;447;51.332;6.778;2023-04-15T16:43:26;13.90;93.50
921;DHT22;447;51.332;6.778;2023-04-15T16:45:52;13.90;93.50
921;DHT22;447;51.332;6.778;2023-04-15T16:48:19;13.90;93.50
921;DHT22;447;51.332;6.778;2023-04-15T16:50:46;13.90;93.60
921;DHT22;447;51.332;6.778;2023-04-15T16:53:14;13.90;93.60
921;DHT22;447;51.332;6.778;2023-04-15T16:55:40;13.90;93.60
921;DHT22;447;51.332;6.778;2023-04-15T16:58:09;13.90;93.60
921;DHT22;447;51.332;6.778;2023-04-15T17:00:35;13.90;93.60
921;DHT22;447;51.332;6.778;2023-04-15T17:03:01;13.90;93.70
921;DHT22;447;51.332;6.778;2023-04-15T17:05:28;13.90;93.70
921;DHT22;447;51.332;6.778;2023-04-15T17:07:55;13.90;93.70
921;DHT22;447;51.332;6.778;2023-04-15T17:10:21;13.90;93.70
921;DHT22;447;51.332;6.778;2023-04-15T17:12:47;13.90;93.70
921;DHT22;447;51.332;6.778;2023-04-15T17:15:17;13.90;93.70
921;DHT22;447;51.332;6.778;2023-04-15T17:17:46;13.90;93.80
921;DHT22;447;51.332;6.778;2023-04-15T17:20:13;13.90;93.80
921;DHT22;447;51.332;6.778;2023-04-15T17:22:39;13.90;93.80
921;DHT22;447;51.332;6.778;2023-04-15T17:25:06;13.90;93.80
921;DHT22;447;51.332;6.778;2023-04-15T17:27:38;13.80;93.80
921;DHT22;447;51.332;6.778;2023-04-15T17:30:11;13.80;93.90
921;DHT22;447;51.332;6.778;2023-04-15T17:32:58;13.90;94.00